sensor_id;sensor_type;location;lat;lon;timestamp;P1;durP1;ratioP1;P2;durP2;ratioP2
20713;SDS011;10518;50.742;4.226;2024-02-04T00:00:25;13.43;;;5.73;;
20713;SDS011;10518;50.742;4.226;2024-02-04T00:02:50;16.10;;;6.63;;
20713;SDS011;10518;50.742;4.226;2024-02-04T00:05:16;18.50;;;6.40;;
20713;SDS011;10518;50.742;4.226;2024-02-04T00:07:43;14.77;;;7.00;;
20713;SDS011;10518;50.742;4.226;2024-02-04T00:10:09;10.97;;;5.87;;
20713;SDS011;10518;50.742;4.226;2024-02-04T00:12:35;10.17;;;5.70;;
20713;SDS011;10518;50.742;4.226;2024-02-04T00:15:00;13.20;;;6.00;;
20713;SDS011;10518;50.742;4.226;2024-02-04T00:17:26;15.27;;;6.07;;
20713;SDS011;10518;50.742;4.226;2024-02-04T00:19:55;12.13;;;5.50;;
20713;SDS011;10518;50.742;4.226;2024-02-04T00:22:21;10.10;;;5.07;;
20713;SDS011;10518;50.742;4.226;2024-02-04T00:24:47;11.60;;;5.50;;
20713;SDS011;10518;50.742;4.226;2024-02-04T00:27:13;9.80;;;5.50;;
20713;SDS011;10518;50.742;4.226;2024-02-04T00:29:38;11.53;;;5.10;;
20713;SDS011;10518;50.742;4.226;2024-02-04T00:32:04;12.93;;;4.93;;
20713;SDS011;10518;50.742;4.226;2024-02-04T00:34:30;11.60;;;4.90;;
20713;SDS011;10518;50.742;4.226;2024-02-04T00:36:56;11.57;;;4.97;;
20713;SDS011;10518;50.742;4.226;2024-02-04T00:39:21;16.43;;;4.53;;
20713;SDS011;10518;50.742;4.226;2024-02-04T00:41:47;12.13;;;5.10;;
20713;SDS011;10518;50.742;4.226;2024-02-04T00:44:13;9.80;;;4.40;;
20713;SDS011;10518;50.742;4.226;2024-02-04T00:46:38;12.50;;;5.20;;
20713;SDS011;10518;50.742;4.226;2024-02-04T00:49:04;11.60;;;5.37;;
20713;SDS011;10518;50.742;4.226;2024-02-04T00:51:29;10.10;;;4.37;;
20713;SDS011;10518;50.742;4.226;2024-02-04T00:53:55;9.60;;;5.10;;
20713;SDS011;10518;50.742;4.226;2024-02-04T00:56:20;13.33;;;5.00;;
20713;SDS011;10518;50.742;4.226;2024-02-04T00:58:46;14.70;;;5.20;;
20713;SDS011;10518;50.742;4.226;2024-02-04T01:01:12;10.13;;;4.30;;
20713;SDS011;10518;50.742;4.226;2024-02-04T01:03:37;9.33;;;4.77;;
20713;SDS011;10518;50.742;4.226;2024-02-04T01:06:03;7.83;;;4.40;;
20713;SDS011;10518;50.742;4.226;2024-02-04T01:08:29;13.37;;;5.47;;
20713;SDS011;10518;50.742;4.226;2024-02-04T01:10:55;8.25;;;4.53;;
20713;SDS011;10518;50.742;4.226;2024-02-04T01:13:21;10.67;;;5.10;;
20713;SDS011;10518;50.742;4.226;2024-02-04T01:15:46;9.53;;;4.60;;
20713;SDS011;10518;50.742;4.226;2024-02-04T01:18:12;9.70;;;4.77;;
20713;SDS011;10518;50.742;4.226;2024-02-04T01:20:38;10.10;;;4.57;;
20713;SDS011;10518;50.742;4.226;2024-02-04T01:23:03;7.87;;;5.03;;
20713;SDS011;10518;50.742;4.226;2024-02-04T01:25:29;11.03;;;5.07;;
20713;SDS011;10518;50.742;4.226;2024-02-04T01:27:55;9.67;;;4.80;;
20713;SDS011;10518;50.742;4.226;2024-02-04T01:30:20;9.40;;;5.10;;
20713;SDS011;10518;50.742;4.226;2024-02-04T01:32:46;8.70;;;4.50;;
20713;SDS011;10518;50.742;4.226;2024-02-04T01:35:11;10.80;;;4.70;;
20713;SDS011;10518;50.742;4.226;2024-02-04T01:37:37;8.23;;;4.35;;
20713;SDS011;10518;50.742;4.226;2024-02-04T01:40:03;7.77;;;4.43;;
20713;SDS011;10518;50.742;4.226;2024-02-04T01:42:30;8.63;;;4.73;;
20713;SDS011;10518;50.742;4.226;2024-02-04T01:44:56;9.20;;;4.43;;
20713;SDS011;10518;50.742;4.226;2024-02-04T01:47:22;10.47;;;4.53;;
20713;SDS011;10518;50.742;4.226;2024-02-04T01:49:48;9.43;;;4.63;;
20713;SDS011;10518;50.742;4.226;2024-02-04T01:52:13;11.33;;;4.80;;
20713;SDS011;10518;50.742;4.226;2024-02-04T01:54:40;7.87;;;4.33;;
20713;SDS011;10518;50.742;4.226;2024-02-04T01:57:08;12.37;;;4.93;;
20713;SDS011;10518;50.742;4.226;2024-02-04T01:59:37;12.80;;;4.60;;
20713;SDS011;10518;50.742;4.226;2024-02-04T02:02:05;11.70;;;4.60;;
20713;SDS011;10518;50.742;4.226;2024-02-04T02:04:31;9.67;;;4.53;;
20713;SDS011;10518;50.742;4.226;2024-02-04T02:06:57;13.93;;;4.70;;
20713;SDS011;10518;50.742;4.226;2024-02-04T02:09:24;6.73;;;4.03;;
20713;SDS011;10518;50.742;4.226;2024-02-04T02:11:54;8.63;;;4.20;;
20713;SDS011;10518;50.742;4.226;2024-02-04T02:14:33;9.83;;;4.33;;
20713;SDS011;10518;50.742;4.226;2024-02-04T02:17:02;8.47;;;4.23;;
20713;SDS011;10518;50.742;4.226;2024-02-04T02:22:29;8.93;;;4.13;;
20713;SDS011;10518;50.742;4.226;2024-02-04T02:25:04;11.03;;;4.10;;
20713;SDS011;10518;50.742;4.226;2024-02-04T02:27:31;12.27;;;4.33;;
20713;SDS011;10518;50.742;4.226;2024-02-04T02:29:57;12.40;;;4.40;;
20713;SDS011;10518;50.742;4.226;2024-02-04T02:32:22;8.93;;;4.10;;
20713;SDS011;10518;50.742;4.226;2024-02-04T02:34:48;9.27;;;4.23;;
20713;SDS011;10518;50.742;4.226;2024-02-04T02:39:59;8.93;;;4.27;;
20713;SDS011;10518;50.742;4.226;2024-02-04T02:42:32;11.30;;;4.20;;
20713;SDS011;10518;50.742;4.226;2024-02-04T02:44:58;10.33;;;4.27;;
20713;SDS011;10518;50.742;4.226;2024-02-04T02:47:25;13.17;;;4.10;;
20713;SDS011;10518;50.742;4.226;2024-02-04T02:49:53;10.60;;;4.73;;
20713;SDS011;10518;50.742;4.226;2024-02-04T02:52:20;11.70;;;4.70;;
20713;SDS011;10518;50.742;4.226;2024-02-04T02:54:46;15.73;;;4.07;;
20713;SDS011;10518;50.742;4.226;2024-02-04T02:57:11;13.57;;;4.50;;
20713;SDS011;10518;50.742;4.226;2024-02-04T02:59:37;13.83;;;4.77;;
20713;SDS011;10518;50.742;4.226;2024-02-04T03:02:03;12.53;;;4.70;;
20713;SDS011;10518;50.742;4.226;2024-02-04T03:04:29;9.60;;;3.97;;
20713;SDS011;10518;50.742;4.226;2024-02-04T03:06:54;11.07;;;3.77;;
20713;SDS011;10518;50.742;4.226;2024-02-04T03:09:20;11.43;;;4.73;;
20713;SDS011;10518;50.742;4.226;2024-02-04T03:11:45;12.17;;;4.37;;
20713;SDS011;10518;50.742;4.226;2024-02-04T03:14:11;10.57;;;3.73;;
20713;SDS011;10518;50.742;4.226;2024-02-04T03:16:38;12.07;;;4.00;;
20713;SDS011;10518;50.742;4.226;2024-02-04T03:19:05;10.17;;;3.67;;
20713;SDS011;10518;50.742;4.226;2024-02-04T03:21:31;9.47;;;3.77;;
20713;SDS011;10518;50.742;4.226;2024-02-04T03:23:56;9.90;;;4.27;;
20713;SDS011;10518;50.742;4.226;2024-02-04T03:26:22;11.43;;;3.63;;
20713;SDS011;10518;50.742;4.226;2024-02-04T03:28:48;10.25;;;4.07;;
20713;SDS011;10518;50.742;4.226;2024-02-04T03:31:20;15.17;;;3.87;;
20713;SDS011;10518;50.742;4.226;2024-02-04T03:33:46;7.70;;;4.03;;
20713;SDS011;10518;50.742;4.226;2024-02-04T03:36:12;10.27;;;3.80;;
20713;SDS011;10518;50.742;4.226;2024-02-04T03:38:40;13.23;;;4.27;;
20713;SDS011;10518;50.742;4.226;2024-02-04T03:41:06;7.93;;;3.93;;
20713;SDS011;10518;50.742;4.226;2024-02-04T03:43:31;14.77;;;3.67;;
20713;SDS011;10518;50.742;4.226;2024-02-04T03:45:57;13.17;;;4.17;;
20713;SDS011;10518;50.742;4.226;2024-02-04T03:48:22;9.90;;;4.17;;
20713;SDS011;10518;50.742;4.226;2024-02-04T03:50:48;7.10;;;3.73;;
20713;SDS011;10518;50.742;4.226;2024-02-04T03:53:14;12.67;;;4.20;;
20713;SDS011;10518;50.742;4.226;2024-02-04T03:55:39;11.50;;;4.30;;
20713;SDS011;10518;50.742;4.226;2024-02-04T03:58:05;11.70;;;4.27;;
20713;SDS011;10518;50.742;4.226;2024-02-04T04:00:30;9.10;;;3.90;;
20713;SDS011;10518;50.742;4.226;2024-02-04T04:02:56;7.43;;;3.73;;
20713;SDS011;10518;50.742;4.226;2024-02-04T04:05:21;9.17;;;4.03;;
20713;SDS011;10518;50.742;4.226;2024-02-04T04:07:47;10.67;;;3.93;;
20713;SDS011;10518;50.742;4.226;2024-02-04T04:10:13;9.53;;;4.07;;
20713;SDS011;10518;50.742;4.226;2024-02-04T04:12:38;13.43;;;4.10;;
20713;SDS011;10518;50.742;4.226;2024-02-04T04:15:04;11.77;;;4.03;;
20713;SDS011;10518;50.742;4.226;2024-02-04T04:17:30;10.50;;;4.23;;
20713;SDS011;10518;50.742;4.226;2024-02-04T04:19:56;11.67;;;4.20;;
20713;SDS011;10518;50.742;4.226;2024-02-04T04:22:21;14.50;;;4.47;;
20713;SDS011;10518;50.742;4.226;2024-02-04T04:24:47;10.13;;;4.33;;
20713;SDS011;10518;50.742;4.226;2024-02-04T04:27:12;11.27;;;4.37;;
20713;SDS011;10518;50.742;4.226;2024-02-04T04:29:38;9.33;;;4.67;;
20713;SDS011;10518;50.742;4.226;2024-02-04T04:32:04;13.30;;;4.27;;
20713;SDS011;10518;50.742;4.226;2024-02-04T04:34:30;14.93;;;4.40;;
20713;SDS011;10518;50.742;4.226;2024-02-04T04:36:55;10.35;;;4.18;;
20713;SDS011;10518;50.742;4.226;2024-02-04T04:39:21;10.97;;;4.20;;
20713;SDS011;10518;50.742;4.226;2024-02-04T04:41:47;11.50;;;4.03;;
20713;SDS011;10518;50.742;4.226;2024-02-04T04:44:12;16.37;;;4.77;;
20713;SDS011;10518;50.742;4.226;2024-02-04T04:46:38;11.97;;;4.70;;
20713;SDS011;10518;50.742;4.226;2024-02-04T04:49:07;9.47;;;4.17;;
20713;SDS011;10518;50.742;4.226;2024-02-04T04:51:32;11.73;;;4.37;;
20713;SDS011;10518;50.742;4.226;2024-02-04T04:53:58;15.23;;;4.33;;
20713;SDS011;10518;50.742;4.226;2024-02-04T04:56:24;10.83;;;5.20;;
20713;SDS011;10518;50.742;4.226;2024-02-04T04:58:49;15.40;;;4.60;;
20713;SDS011;10518;50.742;4.226;2024-02-04T05:01:15;16.90;;;4.87;;
20713;SDS011;10518;50.742;4.226;2024-02-04T05:03:41;14.93;;;5.23;;
20713;SDS011;10518;50.742;4.226;2024-02-04T05:06:07;15.70;;;4.73;;
20713;SDS011;10518;50.742;4.226;2024-02-04T05:08:33;15.93;;;4.70;;
20713;SDS011;10518;50.742;4.226;2024-02-04T05:10:58;12.73;;;4.30;;
20713;SDS011;10518;50.742;4.226;2024-02-04T05:13:24;22.20;;;4.77;;
20713;SDS011;10518;50.742;4.226;2024-02-04T05:15:50;12.57;;;4.13;;
20713;SDS011;10518;50.742;4.226;2024-02-04T05:18:15;9.63;;;4.20;;
20713;SDS011;10518;50.742;4.226;2024-02-04T05:20:41;12.37;;;4.37;;
20713;SDS011;10518;50.742;4.226;2024-02-04T05:23:08;13.47;;;4.37;;
20713;SDS011;10518;50.742;4.226;2024-02-04T05:25:34;11.90;;;4.40;;
20713;SDS011;10518;50.742;4.226;2024-02-04T05:27:59;12.07;;;4.27;;
20713;SDS011;10518;50.742;4.226;2024-02-04T05:30:25;10.00;;;4.10;;
20713;SDS011;10518;50.742;4.226;2024-02-04T05:32:51;8.07;;;3.67;;
20713;SDS011;10518;50.742;4.226;2024-02-04T05:35:16;8.43;;;4.20;;
20713;SDS011;10518;50.742;4.226;2024-02-04T05:37:42;10.87;;;4.17;;
20713;SDS011;10518;50.742;4.226;2024-02-04T05:40:07;9.30;;;4.00;;
20713;SDS011;10518;50.742;4.226;2024-02-04T05:42:33;11.60;;;4.17;;
20713;SDS011;10518;50.742;4.226;2024-02-04T05:45:00;13.43;;;4.43;;
20713;SDS011;10518;50.742;4.226;2024-02-04T05:47:25;14.57;;;5.80;;
20713;SDS011;10518;50.742;4.226;2024-02-04T05:49:51;12.70;;;4.90;;
20713;SDS011;10518;50.742;4.226;2024-02-04T05:52:16;14.47;;;5.27;;
20713;SDS011;10518;50.742;4.226;2024-02-04T05:54:42;17.03;;;5.47;;
20713;SDS011;10518;50.742;4.226;2024-02-04T05:57:08;14.13;;;5.47;;
20713;SDS011;10518;50.742;4.226;2024-02-04T05:59:33;11.37;;;5.50;;
20713;SDS011;10518;50.742;4.226;2024-02-04T06:01:59;16.17;;;5.57;;
20713;SDS011;10518;50.742;4.226;2024-02-04T06:04:25;11.87;;;5.40;;
20713;SDS011;10518;50.742;4.226;2024-02-04T06:06:50;9.87;;;4.87;;
20713;SDS011;10518;50.742;4.226;2024-02-04T06:09:16;18.77;;;5.10;;
20713;SDS011;10518;50.742;4.226;2024-02-04T06:11:45;15.57;;;5.13;;
20713;SDS011;10518;50.742;4.226;2024-02-04T06:14:14;14.00;;;5.27;;
20713;SDS011;10518;50.742;4.226;2024-02-04T06:16:39;15.37;;;5.10;;
20713;SDS011;10518;50.742;4.226;2024-02-04T06:19:05;15.93;;;5.53;;
20713;SDS011;10518;50.742;4.226;2024-02-04T06:21:33;11.67;;;5.40;;
20713;SDS011;10518;50.742;4.226;2024-02-04T06:23:59;13.07;;;5.43;;
20713;SDS011;10518;50.742;4.226;2024-02-04T06:26:25;16.17;;;5.43;;
20713;SDS011;10518;50.742;4.226;2024-02-04T06:28:50;15.90;;;5.00;;
20713;SDS011;10518;50.742;4.226;2024-02-04T06:31:16;17.33;;;5.53;;
20713;SDS011;10518;50.742;4.226;2024-02-04T06:33:41;13.93;;;5.10;;
20713;SDS011;10518;50.742;4.226;2024-02-04T06:36:10;11.17;;;4.70;;
20713;SDS011;10518;50.742;4.226;2024-02-04T06:38:36;15.53;;;5.57;;
20713;SDS011;10518;50.742;4.226;2024-02-04T06:41:02;15.93;;;5.50;;
20713;SDS011;10518;50.742;4.226;2024-02-04T06:43:28;13.53;;;5.33;;
20713;SDS011;10518;50.742;4.226;2024-02-04T06:45:53;9.77;;;4.53;;
20713;SDS011;10518;50.742;4.226;2024-02-04T06:48:19;13.97;;;4.63;;
20713;SDS011;10518;50.742;4.226;2024-02-04T06:50:45;16.33;;;5.10;;
20713;SDS011;10518;50.742;4.226;2024-02-04T06:53:12;13.67;;;4.73;;
20713;SDS011;10518;50.742;4.226;2024-02-04T06:55:38;15.70;;;4.90;;
20713;SDS011;10518;50.742;4.226;2024-02-04T06:58:04;10.40;;;4.43;;
20713;SDS011;10518;50.742;4.226;2024-02-04T07:00:29;13.30;;;4.80;;
20713;SDS011;10518;50.742;4.226;2024-02-04T07:02:55;13.47;;;5.27;;
20713;SDS011;10518;50.742;4.226;2024-02-04T07:05:21;12.27;;;5.23;;
20713;SDS011;10518;50.742;4.226;2024-02-04T07:07:47;14.07;;;5.13;;
20713;SDS011;10518;50.742;4.226;2024-02-04T07:10:14;14.37;;;4.73;;
20713;SDS011;10518;50.742;4.226;2024-02-04T07:12:40;11.60;;;4.93;;
20713;SDS011;10518;50.742;4.226;2024-02-04T07:15:06;12.23;;;5.17;;
20713;SDS011;10518;50.742;4.226;2024-02-04T07:17:32;14.57;;;5.23;;
20713;SDS011;10518;50.742;4.226;2024-02-04T07:19:57;12.93;;;5.07;;
20713;SDS011;10518;50.742;4.226;2024-02-04T07:22:23;14.10;;;5.90;;
20713;SDS011;10518;50.742;4.226;2024-02-04T07:24:49;17.70;;;5.87;;
20713;SDS011;10518;50.742;4.226;2024-02-04T07:27:14;12.73;;;5.20;;
20713;SDS011;10518;50.742;4.226;2024-02-04T07:29:40;15.30;;;5.40;;
20713;SDS011;10518;50.742;4.226;2024-02-04T07:32:06;18.40;;;5.80;;
20713;SDS011;10518;50.742;4.226;2024-02-04T07:34:31;15.70;;;5.87;;
20713;SDS011;10518;50.742;4.226;2024-02-04T07:36:57;17.13;;;5.40;;
20713;SDS011;10518;50.742;4.226;2024-02-04T07:39:23;18.13;;;6.07;;
20713;SDS011;10518;50.742;4.226;2024-02-04T07:41:48;11.43;;;5.30;;
20713;SDS011;10518;50.742;4.226;2024-02-04T07:44:14;15.37;;;5.77;;
20713;SDS011;10518;50.742;4.226;2024-02-04T07:46:40;20.87;;;5.63;;
20713;SDS011;10518;50.742;4.226;2024-02-04T07:49:05;19.47;;;6.47;;
20713;SDS011;10518;50.742;4.226;2024-02-04T07:51:31;19.27;;;5.73;;
20713;SDS011;10518;50.742;4.226;2024-02-04T07:53:57;17.83;;;5.60;;
20713;SDS011;10518;50.742;4.226;2024-02-04T07:56:23;16.13;;;5.70;;
20713;SDS011;10518;50.742;4.226;2024-02-04T07:58:49;13.07;;;5.63;;
20713;SDS011;10518;50.742;4.226;2024-02-04T08:01:14;14.33;;;5.67;;
20713;SDS011;10518;50.742;4.226;2024-02-04T08:03:40;17.20;;;5.33;;
20713;SDS011;10518;50.742;4.226;2024-02-04T08:06:06;14.20;;;5.50;;
20713;SDS011;10518;50.742;4.226;2024-02-04T08:08:32;12.60;;;4.97;;
20713;SDS011;10518;50.742;4.226;2024-02-04T08:10:58;15.20;;;5.40;;
20713;SDS011;10518;50.742;4.226;2024-02-04T08:13:23;14.33;;;5.10;;
20713;SDS011;10518;50.742;4.226;2024-02-04T08:15:49;17.40;;;5.23;;
20713;SDS011;10518;50.742;4.226;2024-02-04T08:18:14;10.87;;;4.57;;
20713;SDS011;10518;50.742;4.226;2024-02-04T08:20:40;13.23;;;4.87;;
20713;SDS011;10518;50.742;4.226;2024-02-04T08:23:06;14.43;;;4.17;;
20713;SDS011;10518;50.742;4.226;2024-02-04T08:25:31;13.87;;;4.80;;
20713;SDS011;10518;50.742;4.226;2024-02-04T08:27:58;13.10;;;4.40;;
20713;SDS011;10518;50.742;4.226;2024-02-04T08:30:23;11.77;;;4.80;;
20713;SDS011;10518;50.742;4.226;2024-02-04T08:32:49;10.20;;;3.90;;
20713;SDS011;10518;50.742;4.226;2024-02-04T08:35:14;7.80;;;3.70;;
20713;SDS011;10518;50.742;4.226;2024-02-04T08:37:40;8.07;;;3.57;;
20713;SDS011;10518;50.742;4.226;2024-02-04T08:40:06;12.73;;;3.93;;
20713;SDS011;10518;50.742;4.226;2024-02-04T08:42:32;8.83;;;3.30;;
20713;SDS011;10518;50.742;4.226;2024-02-04T08:44:58;8.00;;;3.23;;
20713;SDS011;10518;50.742;4.226;2024-02-04T08:47:23;10.47;;;2.97;;
20713;SDS011;10518;50.742;4.226;2024-02-04T08:49:49;9.60;;;2.80;;
20713;SDS011;10518;50.742;4.226;2024-02-04T08:52:14;8.73;;;3.00;;
20713;SDS011;10518;50.742;4.226;2024-02-04T08:54:40;7.40;;;2.73;;
20713;SDS011;10518;50.742;4.226;2024-02-04T08:57:05;6.90;;;3.00;;
20713;SDS011;10518;50.742;4.226;2024-02-04T08:59:31;8.60;;;2.90;;
20713;SDS011;10518;50.742;4.226;2024-02-04T09:01:57;6.60;;;2.47;;
20713;SDS011;10518;50.742;4.226;2024-02-04T09:04:22;10.70;;;3.10;;
20713;SDS011;10518;50.742;4.226;2024-02-04T09:06:48;3.93;;;2.40;;
20713;SDS011;10518;50.742;4.226;2024-02-04T09:09:13;6.27;;;2.97;;
20713;SDS011;10518;50.742;4.226;2024-02-04T09:11:39;10.50;;;3.20;;
20713;SDS011;10518;50.742;4.226;2024-02-04T09:14:05;5.38;;;2.55;;
20713;SDS011;10518;50.742;4.226;2024-02-04T09:16:30;4.60;;;2.90;;
20713;SDS011;10518;50.742;4.226;2024-02-04T09:18:56;7.87;;;3.17;;
20713;SDS011;10518;50.742;4.226;2024-02-04T09:21:21;4.87;;;3.17;;
20713;SDS011;10518;50.742;4.226;2024-02-04T09:23:47;6.80;;;3.23;;
20713;SDS011;10518;50.742;4.226;2024-02-04T09:26:13;8.48;;;2.97;;
20713;SDS011;10518;50.742;4.226;2024-02-04T09:28:39;8.52;;;2.72;;
20713;SDS011;10518;50.742;4.226;2024-02-04T09:31:07;8.00;;;3.10;;
20713;SDS011;10518;50.742;4.226;2024-02-04T09:33:34;8.73;;;3.40;;
20713;SDS011;10518;50.742;4.226;2024-02-04T09:36:00;7.68;;;3.03;;
20713;SDS011;10518;50.742;4.226;2024-02-04T09:38:26;6.95;;;2.90;;
20713;SDS011;10518;50.742;4.226;2024-02-04T09:40:51;6.15;;;3.13;;
20713;SDS011;10518;50.742;4.226;2024-02-04T09:43:17;9.48;;;4.05;;
20713;SDS011;10518;50.742;4.226;2024-02-04T09:45:44;9.43;;;3.97;;
20713;SDS011;10518;50.742;4.226;2024-02-04T09:48:09;5.72;;;3.72;;
20713;SDS011;10518;50.742;4.226;2024-02-04T09:50:36;7.40;;;3.80;;
20713;SDS011;10518;50.742;4.226;2024-02-04T09:53:02;6.55;;;3.72;;
20713;SDS011;10518;50.742;4.226;2024-02-04T09:55:30;9.88;;;4.10;;
20713;SDS011;10518;50.742;4.226;2024-02-04T09:57:56;10.13;;;4.45;;
20713;SDS011;10518;50.742;4.226;2024-02-04T10:00:22;8.07;;;3.80;;
20713;SDS011;10518;50.742;4.226;2024-02-04T10:02:52;6.80;;;4.37;;
20713;SDS011;10518;50.742;4.226;2024-02-04T10:05:19;6.50;;;3.60;;
20713;SDS011;10518;50.742;4.226;2024-02-04T10:07:45;5.43;;;3.40;;
20713;SDS011;10518;50.742;4.226;2024-02-04T10:10:10;9.82;;;3.63;;
20713;SDS011;10518;50.742;4.226;2024-02-04T10:12:37;10.32;;;3.88;;
20713;SDS011;10518;50.742;4.226;2024-02-04T10:15:04;7.45;;;3.70;;
20713;SDS011;10518;50.742;4.226;2024-02-04T10:17:30;7.05;;;3.60;;
20713;SDS011;10518;50.742;4.226;2024-02-04T10:19:57;5.05;;;2.75;;
20713;SDS011;10518;50.742;4.226;2024-02-04T10:22:22;6.82;;;2.60;;
20713;SDS011;10518;50.742;4.226;2024-02-04T10:24:51;5.90;;;2.40;;
20713;SDS011;10518;50.742;4.226;2024-02-04T10:27:17;4.72;;;2.80;;
20713;SDS011;10518;50.742;4.226;2024-02-04T10:29:42;11.52;;;2.88;;
20713;SDS011;10518;50.742;4.226;2024-02-04T10:32:08;6.70;;;2.45;;
20713;SDS011;10518;50.742;4.226;2024-02-04T10:34:39;4.13;;;2.25;;
20713;SDS011;10518;50.742;4.226;2024-02-04T10:37:05;5.60;;;2.10;;
20713;SDS011;10518;50.742;4.226;2024-02-04T10:39:30;4.95;;;2.17;;
20713;SDS011;10518;50.742;4.226;2024-02-04T10:41:56;7.70;;;2.22;;
20713;SDS011;10518;50.742;4.226;2024-02-04T10:44:28;5.35;;;2.50;;
20713;SDS011;10518;50.742;4.226;2024-02-04T10:46:57;2.60;;;2.08;;
20713;SDS011;10518;50.742;4.226;2024-02-04T10:49:25;3.40;;;2.10;;
20713;SDS011;10518;50.742;4.226;2024-02-04T10:51:51;3.63;;;1.90;;
20713;SDS011;10518;50.742;4.226;2024-02-04T10:54:20;4.40;;;1.90;;
20713;SDS011;10518;50.742;4.226;2024-02-04T10:56:55;4.97;;;2.08;;
20713;SDS011;10518;50.742;4.226;2024-02-04T10:59:26;5.20;;;2.35;;
20713;SDS011;10518;50.742;4.226;2024-02-04T11:01:55;3.28;;;2.10;;
20713;SDS011;10518;50.742;4.226;2024-02-04T11:04:21;2.38;;;1.85;;
20713;SDS011;10518;50.742;4.226;2024-02-04T11:06:48;3.50;;;1.90;;
20713;SDS011;10518;50.742;4.226;2024-02-04T11:09:15;4.72;;;1.88;;
20713;SDS011;10518;50.742;4.226;2024-02-04T11:11:42;4.50;;;2.05;;
20713;SDS011;10518;50.742;4.226;2024-02-04T11:14:10;3.03;;;2.00;;
20713;SDS011;10518;50.742;4.226;2024-02-04T11:27:05;3.22;;;2.20;;
20713;SDS011;10518;50.742;4.226;2024-02-04T11:29:31;4.72;;;2.00;;
20713;SDS011;10518;50.742;4.226;2024-02-04T11:31:56;2.58;;;1.80;;
20713;SDS011;10518;50.742;4.226;2024-02-04T11:34:23;4.35;;;2.10;;
20713;SDS011;10518;50.742;4.226;2024-02-04T11:36:48;4.78;;;2.05;;
20713;SDS011;10518;50.742;4.226;2024-02-04T11:39:15;5.53;;;2.10;;
20713;SDS011;10518;50.742;4.226;2024-02-04T11:41:46;2.40;;;1.67;;
20713;SDS011;10518;50.742;4.226;2024-02-04T11:44:12;3.70;;;1.90;;
20713;SDS011;10518;50.742;4.226;2024-02-04T11:46:48;3.88;;;1.95;;
20713;SDS011;10518;50.742;4.226;2024-02-04T11:49:18;4.95;;;2.00;;
20713;SDS011;10518;50.742;4.226;2024-02-04T11:51:48;7.53;;;2.22;;
20713;SDS011;10518;50.742;4.226;2024-02-04T11:54:19;3.53;;;2.10;;
20713;SDS011;10518;50.742;4.226;2024-02-04T11:56:47;3.30;;;2.30;;
20713;SDS011;10518;50.742;4.226;2024-02-04T11:59:18;3.47;;;2.30;;
20713;SDS011;10518;50.742;4.226;2024-02-04T12:01:46;6.95;;;2.38;;
20713;SDS011;10518;50.742;4.226;2024-02-04T12:04:13;4.97;;;2.40;;
20713;SDS011;10518;50.742;4.226;2024-02-04T12:06:41;4.43;;;2.50;;
20713;SDS011;10518;50.742;4.226;2024-02-04T12:09:10;3.70;;;2.17;;
20713;SDS011;10518;50.742;4.226;2024-02-04T12:11:36;4.15;;;2.13;;
20713;SDS011;10518;50.742;4.226;2024-02-04T12:14:03;3.00;;;2.05;;
20713;SDS011;10518;50.742;4.226;2024-02-04T12:16:30;3.42;;;2.30;;
20713;SDS011;10518;50.742;4.226;2024-02-04T12:18:57;2.88;;;2.00;;
20713;SDS011;10518;50.742;4.226;2024-02-04T12:21:24;4.68;;;2.25;;
20713;SDS011;10518;50.742;4.226;2024-02-04T12:23:50;4.47;;;2.13;;
20713;SDS011;10518;50.742;4.226;2024-02-04T12:26:16;3.17;;;2.00;;
20713;SDS011;10518;50.742;4.226;2024-02-04T12:28:42;5.85;;;2.20;;
20713;SDS011;10518;50.742;4.226;2024-02-04T12:31:15;3.83;;;2.08;;
20713;SDS011;10518;50.742;4.226;2024-02-04T12:33:42;2.53;;;1.90;;
20713;SDS011;10518;50.742;4.226;2024-02-04T12:36:09;3.55;;;2.30;;
20713;SDS011;10518;50.742;4.226;2024-02-04T12:38:34;4.95;;;2.13;;
20713;SDS011;10518;50.742;4.226;2024-02-04T12:41:01;2.45;;;1.88;;
20713;SDS011;10518;50.742;4.226;2024-02-04T12:43:28;5.10;;;2.10;;
20713;SDS011;10518;50.742;4.226;2024-02-04T12:45:55;2.88;;;2.45;;
20713;SDS011;10518;50.742;4.226;2024-02-04T12:48:22;6.68;;;1.77;;
20713;SDS011;10518;50.742;4.226;2024-02-04T12:50:51;5.35;;;2.25;;
20713;SDS011;10518;50.742;4.226;2024-02-04T12:53:16;4.45;;;1.98;;
20713;SDS011;10518;50.742;4.226;2024-02-04T12:55:44;3.47;;;2.17;;
20713;SDS011;10518;50.742;4.226;2024-02-04T12:58:10;10.70;;;2.05;;
20713;SDS011;10518;50.742;4.226;2024-02-04T13:00:37;3.75;;;1.98;;
20713;SDS011;10518;50.742;4.226;2024-02-04T13:03:04;3.42;;;2.03;;
20713;SDS011;10518;50.742;4.226;2024-02-04T13:05:31;3.15;;;1.90;;
20713;SDS011;10518;50.742;4.226;2024-02-04T13:08:00;6.25;;;1.98;;
20713;SDS011;10518;50.742;4.226;2024-02-04T13:10:37;3.63;;;1.90;;
20713;SDS011;10518;50.742;4.226;2024-02-04T13:13:09;6.57;;;2.30;;
20713;SDS011;10518;50.742;4.226;2024-02-04T13:15:37;3.30;;;2.45;;
20713;SDS011;10518;50.742;4.226;2024-02-04T13:18:04;4.40;;;2.38;;
20713;SDS011;10518;50.742;4.226;2024-02-04T13:20:31;5.00;;;2.25;;
20713;SDS011;10518;50.742;4.226;2024-02-04T13:22:56;4.88;;;2.10;;
20713;SDS011;10518;50.742;4.226;2024-02-04T13:25:22;9.68;;;2.47;;
20713;SDS011;10518;50.742;4.226;2024-02-04T13:27:48;6.05;;;2.33;;
20713;SDS011;10518;50.742;4.226;2024-02-04T13:30:15;6.88;;;2.58;;
20713;SDS011;10518;50.742;4.226;2024-02-04T13:32:41;6.68;;;3.00;;
20713;SDS011;10518;50.742;4.226;2024-02-04T13:35:07;4.30;;;2.22;;
20713;SDS011;10518;50.742;4.226;2024-02-04T13:37:55;5.88;;;2.45;;
20713;SDS011;10518;50.742;4.226;2024-02-04T13:40:20;3.30;;;2.30;;
20713;SDS011;10518;50.742;4.226;2024-02-04T13:42:48;4.82;;;2.20;;
20713;SDS011;10518;50.742;4.226;2024-02-04T13:45:14;10.63;;;2.28;;
20713;SDS011;10518;50.742;4.226;2024-02-04T13:47:40;4.63;;;2.05;;
20713;SDS011;10518;50.742;4.226;2024-02-04T13:50:06;10.68;;;2.40;;
20713;SDS011;10518;50.742;4.226;2024-02-04T13:52:33;6.10;;;2.15;;
20713;SDS011;10518;50.742;4.226;2024-02-04T13:55:03;8.90;;;3.15;;
20713;SDS011;10518;50.742;4.226;2024-02-04T13:57:35;7.28;;;2.40;;
20713;SDS011;10518;50.742;4.226;2024-02-04T14:00:01;6.07;;;2.35;;
20713;SDS011;10518;50.742;4.226;2024-02-04T14:02:29;3.92;;;2.38;;
20713;SDS011;10518;50.742;4.226;2024-02-04T14:04:55;8.35;;;2.85;;
20713;SDS011;10518;50.742;4.226;2024-02-04T14:07:21;9.15;;;2.35;;
20713;SDS011;10518;50.742;4.226;2024-02-04T14:09:47;4.80;;;2.05;;
20713;SDS011;10518;50.742;4.226;2024-02-04T14:12:13;6.45;;;2.55;;
20713;SDS011;10518;50.742;4.226;2024-02-04T14:14:39;8.57;;;2.30;;
20713;SDS011;10518;50.742;4.226;2024-02-04T14:17:05;7.28;;;2.50;;
20713;SDS011;10518;50.742;4.226;2024-02-04T14:19:30;6.80;;;2.47;;
20713;SDS011;10518;50.742;4.226;2024-02-04T14:21:56;10.25;;;2.20;;
20713;SDS011;10518;50.742;4.226;2024-02-04T14:24:21;8.13;;;2.45;;
20713;SDS011;10518;50.742;4.226;2024-02-04T14:26:47;8.68;;;2.45;;
20713;SDS011;10518;50.742;4.226;2024-02-04T14:29:13;12.23;;;2.83;;
20713;SDS011;10518;50.742;4.226;2024-02-04T14:31:39;4.53;;;2.50;;
20713;SDS011;10518;50.742;4.226;2024-02-04T14:34:04;5.03;;;2.30;;
20713;SDS011;10518;50.742;4.226;2024-02-04T14:36:30;6.05;;;2.40;;
20713;SDS011;10518;50.742;4.226;2024-02-04T14:38:56;5.57;;;2.28;;
20713;SDS011;10518;50.742;4.226;2024-02-04T14:41:22;8.38;;;2.80;;
20713;SDS011;10518;50.742;4.226;2024-02-04T14:43:48;5.70;;;2.40;;
20713;SDS011;10518;50.742;4.226;2024-02-04T14:46:14;5.70;;;2.33;;
20713;SDS011;10518;50.742;4.226;2024-02-04T14:48:40;10.00;;;2.15;;
20713;SDS011;10518;50.742;4.226;2024-02-04T14:51:05;3.85;;;2.20;;